createdAt,value
2018-09-23T00:04:53.918Z,64.80
2018-09-23T00:09:57.043Z,65.10
2018-09-23T00:15:00.152Z,66.10
2018-09-23T00:20:03.279Z,64.80
2018-09-23T00:25:06.370Z,65.00
2018-09-23T00:30:09.165Z,64.90
2018-09-23T00:35:12.255Z,64.70
2018-09-23T00:40:15.355Z,65.40
2018-09-23T00:45:18.443Z,65.80
2018-09-23T00:50:21.559Z,65.80
2018-09-23T00:55:24.673Z,65.90
2018-09-23T01:00:34.612Z,66.20
2018-09-23T01:05:37.695Z,66.00
2018-09-23T01:10:40.798Z,65.80
2018-09-23T01:15:43.915Z,66.10
2018-09-23T01:20:47.091Z,65.50
2018-09-23T01:25:50.204Z,66.10
2018-09-23T01:30:53.417Z,66.50
2018-09-23T01:35:56.523Z,65.90
2018-09-23T01:40:59.599Z,66.00
2018-09-23T01:46:02.866Z,66.50
2018-09-23T01:51:06.155Z,66.50
2018-09-23T01:56:09.262Z,67.60
2018-09-23T02:01:12.337Z,66.70
2018-09-23T02:06:15.431Z,66.30
2018-09-23T02:11:18.544Z,66.60
2018-09-23T02:16:21.619Z,67.00
2018-09-23T02:21:24.711Z,66.90
2018-09-23T02:26:27.811Z,67.00
2018-09-23T02:31:30.923Z,67.70
2018-09-23T02:36:34.030Z,66.60
2018-09-23T02:41:37.140Z,67.60
2018-09-23T02:46:40.236Z,67.10
2018-09-23T02:51:43.339Z,67.00
2018-09-23T02:56:46.435Z,66.80
2018-09-23T03:01:49.555Z,67.60
2018-09-23T03:06:52.663Z,67.40
2018-09-23T03:11:55.762Z,67.30
2018-09-23T03:16:58.923Z,67.10
2018-09-23T03:22:02.047Z,67.50
2018-09-23T03:27:05.115Z,67.20
2018-09-23T03:32:08.219Z,67.10
2018-09-23T03:37:11.311Z,67.40
2018-09-23T03:42:15.621Z,67.40
2018-09-23T03:47:18.743Z,67.60
2018-09-23T03:52:21.924Z,67.10
2018-09-23T03:57:25.024Z,67.70
2018-09-23T04:02:28.127Z,67.70
2018-09-23T04:07:31.239Z,67.30
2018-09-23T04:12:34.353Z,67.60
2018-09-23T04:17:37.458Z,67.70
2018-09-23T04:22:46.788Z,67.40
2018-09-23T04:27:50.339Z,67.60
2018-09-23T04:32:53.432Z,67.30
2018-09-23T04:37:56.516Z,67.30
2018-09-23T04:42:59.653Z,67.40
2018-09-23T04:48:02.718Z,67.40
2018-09-23T04:53:05.852Z,67.30
2018-09-23T04:58:08.935Z,67.50
2018-09-23T05:03:12.043Z,67.40
2018-09-23T05:08:15.154Z,67.70
2018-09-23T05:13:18.297Z,67.80
2018-09-23T05:18:21.415Z,68.60
2018-09-23T05:23:24.504Z,68.90
2018-09-23T05:28:27.608Z,68.10
2018-09-23T05:33:30.718Z,68.20
2018-09-23T05:38:33.813Z,68.20
2018-09-23T05:43:36.955Z,68.30
2018-09-23T05:48:40.030Z,68.30
2018-09-23T05:53:43.474Z,68.60
2018-09-23T05:58:46.579Z,68.60
2018-09-23T06:03:49.745Z,68.60
2018-09-23T06:08:52.903Z,68.90
2018-09-23T06:13:55.991Z,68.80
2018-09-23T06:18:59.080Z,69.10
2018-09-23T06:24:02.175Z,69.30
2018-09-23T06:29:05.574Z,69.20
2018-09-23T06:34:08.711Z,69.50
2018-09-23T06:39:11.802Z,69.60
2018-09-23T06:44:14.924Z,69.20
2018-09-23T06:49:18.011Z,69.90
2018-09-23T06:54:21.110Z,69.90
2018-09-23T06:59:24.324Z,70.00
2018-09-23T07:04:27.500Z,70.00
2018-09-23T07:09:30.543Z,69.90
2018-09-23T07:14:33.659Z,70.10
2018-09-23T07:19:36.781Z,70.30
2018-09-23T07:24:39.898Z,70.10
2018-09-23T07:29:43.016Z,70.10
2018-09-23T07:34:46.108Z,70.00
2018-09-23T07:39:49.321Z,70.20
2018-09-23T07:44:52.380Z,70.30
2018-09-23T07:49:55.479Z,70.50
2018-09-23T07:54:58.585Z,70.70
2018-09-23T08:00:01.703Z,70.80
2018-09-23T08:05:04.811Z,70.80
2018-09-23T08:10:08.039Z,70.50
2018-09-23T08:15:11.134Z,70.50
2018-09-23T08:20:14.355Z,70.70
2018-09-23T08:25:17.427Z,70.50
2018-09-23T08:30:20.577Z,69.80
2018-09-23T08:35:23.760Z,69.70
2018-09-23T08:40:26.876Z,70.40
2018-09-23T08:45:30.020Z,70.10
2018-09-23T08:50:33.338Z,69.90
2018-09-23T08:55:38.512Z,69.50
2018-09-23T09:00:41.744Z,69.50
2018-09-23T09:05:44.832Z,69.30
2018-09-23T09:10:48.027Z,69.10
2018-09-23T09:15:51.185Z,68.90
2018-09-23T09:20:54.910Z,68.60
2018-09-23T09:25:58.648Z,68.50
2018-09-23T09:31:02.342Z,67.70
2018-09-23T09:36:06.168Z,67.70
2018-09-23T09:41:09.995Z,67.10
2018-09-23T09:46:13.819Z,67.10
2018-09-23T09:51:17.552Z,67.10
2018-09-23T09:56:21.359Z,67.30
2018-09-23T10:01:25.258Z,66.30
2018-09-23T10:06:28.967Z,65.80
2018-09-23T10:11:32.765Z,65.30
2018-09-23T10:16:36.563Z,64.90
2018-09-23T10:21:40.767Z,64.60
2018-09-23T10:26:44.476Z,63.50
2018-09-23T10:31:49.569Z,64.00
2018-09-23T10:36:53.371Z,64.20
2018-09-23T10:41:57.096Z,63.50
2018-09-23T10:47:00.792Z,63.10
2018-09-23T10:52:04.524Z,63.60
2018-09-23T10:57:08.256Z,63.10
2018-09-23T11:02:11.988Z,63.10
2018-09-23T11:07:15.712Z,62.90
2018-09-23T11:12:19.436Z,62.50
2018-09-23T11:17:23.124Z,62.60
2018-09-23T11:22:26.820Z,62.50
2018-09-23T11:27:30.555Z,62.40
2018-09-23T11:32:34.279Z,62.40
2018-09-23T11:37:38.004Z,62.10
2018-09-23T11:42:41.754Z,61.70
2018-09-23T11:47:45.655Z,62.40
2018-09-23T11:52:49.375Z,62.20
2018-09-23T11:57:53.095Z,61.10
2018-09-23T12:02:56.804Z,61.90
2018-09-23T12:08:00.531Z,62.50
2018-09-23T12:13:04.231Z,62.00
2018-09-23T12:18:07.972Z,62.40
2018-09-23T12:23:11.688Z,62.20
2018-09-23T12:28:15.616Z,62.20
2018-09-23T12:33:19.426Z,62.00
2018-09-23T12:38:23.080Z,61.90
2018-09-23T12:43:27.099Z,61.60
2018-09-23T12:48:30.823Z,61.00
2018-09-23T12:53:34.539Z,60.90
2018-09-23T12:58:38.290Z,60.30
2018-09-23T13:03:41.991Z,59.90
2018-09-23T13:08:45.703Z,60.70
2018-09-23T13:13:49.431Z,60.30
2018-09-23T13:18:53.152Z,59.90
2018-09-23T13:23:56.903Z,60.30
2018-09-23T13:29:00.702Z,60.70
2018-09-23T13:34:04.443Z,60.80
2018-09-23T13:39:08.247Z,60.60
2018-09-23T13:44:12.020Z,60.40
2018-09-23T13:49:16.528Z,61.20
2018-09-23T13:54:20.534Z,61.50
2018-09-23T13:59:24.230Z,61.90
2018-09-23T14:04:28.036Z,61.30
2018-09-23T14:09:31.854Z,61.80
2018-09-23T14:14:35.680Z,62.30
2018-09-23T14:19:39.638Z,62.80
2018-09-23T14:24:43.404Z,62.40
2018-09-23T14:29:47.124Z,62.80
2018-09-23T14:34:50.872Z,62.80
2018-09-23T14:39:54.592Z,63.70
2018-09-23T14:44:58.339Z,63.10
2018-09-23T14:50:02.129Z,63.00
2018-09-23T14:55:05.946Z,63.80
2018-09-23T15:00:09.600Z,63.80
2018-09-23T15:05:13.324Z,63.50
2018-09-23T15:10:17.047Z,63.40
2018-09-23T15:15:20.771Z,63.70
2018-09-23T15:20:24.503Z,62.70
2018-09-23T15:25:28.234Z,62.60
2018-09-23T15:30:31.951Z,62.70
2018-09-23T15:35:35.643Z,62.50
2018-09-23T15:40:39.349Z,63.50
2018-09-23T15:45:43.168Z,63.40
2018-09-23T15:50:46.873Z,63.70
2018-09-23T15:55:50.624Z,64.10
2018-09-23T16:00:54.339Z,63.90
2018-09-23T16:05:58.079Z,63.90
2018-09-23T16:11:01.815Z,64.00
2018-09-23T16:16:05.565Z,63.50
2018-09-23T16:21:09.297Z,64.40
2018-09-23T16:26:13.040Z,65.20
2018-09-23T16:31:16.764Z,65.00
2018-09-23T16:36:20.588Z,65.10
2018-09-23T16:41:24.332Z,65.00
2018-09-23T16:46:28.133Z,64.90
2018-09-23T16:51:32.090Z,65.20
2018-09-23T16:56:35.804Z,64.90
2018-09-23T17:01:39.528Z,65.90
2018-09-23T17:06:43.312Z,65.50
2018-09-23T17:11:47.040Z,65.60
2018-09-23T17:16:50.771Z,66.40
2018-09-23T17:21:54.583Z,66.20
2018-09-23T17:26:58.324Z,65.30
2018-09-23T17:32:02.059Z,65.90
2018-09-23T17:37:07.361Z,66.30
2018-09-23T17:42:11.128Z,66.50
2018-09-23T17:47:14.880Z,66.70
2018-09-23T17:52:18.621Z,66.70
2018-09-23T17:57:22.387Z,67.10
2018-09-23T18:02:26.108Z,67.10
2018-09-23T18:07:32.752Z,67.20
2018-09-23T18:12:36.533Z,67.20
2018-09-23T18:17:40.333Z,67.60
2018-09-23T18:22:49.571Z,67.50
2018-09-23T18:27:53.555Z,67.60
2018-09-23T18:32:57.262Z,67.50
2018-09-23T18:38:00.991Z,67.70
2018-09-23T18:43:04.686Z,67.30
2018-09-23T18:48:08.659Z,67.10
2018-09-23T18:53:17.954Z,67.50
2018-09-23T18:58:21.812Z,67.60
2018-09-23T19:03:25.604Z,68.20
2018-09-23T19:08:29.281Z,68.10
2018-09-23T19:13:38.415Z,68.00
2018-09-23T19:18:42.162Z,67.90
2018-09-23T19:23:45.895Z,68.10
2018-09-23T19:28:49.676Z,68.60
2018-09-23T19:33:53.511Z,68.50
2018-09-23T19:38:57.287Z,68.50
2018-09-23T19:44:01.448Z,68.70
2018-09-23T19:49:05.350Z,68.30
2018-09-23T19:54:09.072Z,68.70
2018-09-23T19:59:12.888Z,69.30
2018-09-23T20:04:16.608Z,69.20
2018-09-23T20:09:20.434Z,69.10
2018-09-23T20:14:24.156Z,69.40
2018-09-23T20:19:27.875Z,69.00
2018-09-23T20:24:31.717Z,69.80
2018-09-23T20:29:35.752Z,69.50
2018-09-23T20:34:39.563Z,69.20
2018-09-23T20:39:43.280Z,69.90
2018-09-23T20:44:47.127Z,69.20
2018-09-23T20:49:50.824Z,69.50
2018-09-23T20:54:54.567Z,69.60
2018-09-23T20:59:58.279Z,69.20
2018-09-23T21:05:02.096Z,69.10
2018-09-23T21:10:06.098Z,69.50
2018-09-23T21:15:10.223Z,69.50
2018-09-23T21:20:13.890Z,69.30
2018-09-23T21:25:17.693Z,69.10
2018-09-23T21:30:21.512Z,70.20
2018-09-23T21:35:25.332Z,70.30
2018-09-23T21:40:29.175Z,70.20
2018-09-23T21:45:32.983Z,70.00
2018-09-23T21:50:36.812Z,69.30
2018-09-23T21:55:40.535Z,69.00
2018-09-23T22:00:44.888Z,69.10
2018-09-23T22:05:48.640Z,68.90
2018-09-23T22:10:52.362Z,69.10
2018-09-23T22:15:56.076Z,69.30
2018-09-23T22:20:59.814Z,68.70
2018-09-23T22:26:03.596Z,69.70
2018-09-23T22:31:07.311Z,69.50
2018-09-23T22:36:11.028Z,69.40
2018-09-23T22:41:14.739Z,69.70
2018-09-23T22:46:18.475Z,69.80
2018-09-23T22:51:22.236Z,69.10
2018-09-23T22:56:25.993Z,69.70
2018-09-23T23:01:29.748Z,69.20
2018-09-23T23:06:33.467Z,69.50
2018-09-23T23:11:37.219Z,69.60
2018-09-23T23:16:40.912Z,69.50
2018-09-23T23:21:44.640Z,69.30
2018-09-23T23:26:48.456Z,69.90
2018-09-23T23:31:52.194Z,69.80
2018-09-23T23:36:55.924Z,69.40
2018-09-23T23:41:59.635Z,69.50
2018-09-23T23:47:03.381Z,69.70
2018-09-23T23:52:07.103Z,69.80
2018-09-23T23:57:10.853Z,68.90
